Time;durP1;ratioP1;P1;durP2;ratioP2;P2;SDS_P1;SDS_P2;PMS_P1;PMS_P2;Temp;Humidity;BMP_temperature;BMP_pressure;BME280_temperature;BME280_humidity;BME280_pressure;Samples;Min_cycle;Max_cycle;Signal;HPM_P1;HPM_P2
2021/12/18 00:01:24;;;;;;;27.95;6.45;;;7.40;99.90;;;;;;5018384;28;20054;-69
2021/12/18 00:03:50;;;;;;;31.67;5.57;;;7.30;99.90;;;;;;5018101;28;20060;-68
2021/12/18 00:06:16;;;;;;;23.35;6.00;;;7.30;99.90;;;;;;5001360;28;20053;-68
2021/12/18 00:08:42;;;;;;;18.50;5.95;;;7.30;99.90;;;;;;5018306;28;20560;-68
2021/12/18 00:11:07;;;;;;;15.32;6.00;;;7.30;99.90;;;;;;5018001;28;20064;-68
2021/12/18 00:13:33;;;;;;;21.92;5.88;;;7.30;99.90;;;;;;5001155;28;20125;-68
2021/12/18 00:15:59;;;;;;;20.02;5.30;;;7.30;99.90;;;;;;5000751;28;20049;-69
2021/12/18 00:18:25;;;;;;;17.42;4.65;;;7.40;99.90;;;;;;5023206;28;20136;-67
2021/12/18 00:20:51;;;;;;;30.33;5.13;;;7.40;99.90;;;;;;5020665;28;20140;-68
2021/12/18 00:23:17;;;;;;;15.43;5.32;;;7.40;99.90;;;;;;5037798;28;20064;-67
2021/12/18 00:25:43;;;;;;;15.13;5.40;;;7.40;99.90;;;;;;5020498;28;20045;-68
2021/12/18 00:28:09;;;;;;;12.40;4.60;;;7.40;99.90;;;;;;5037138;28;20081;-69
2021/12/18 00:30:35;;;;;;;12.40;3.63;;;7.40;99.90;;;;;;5037484;28;20124;-68
2021/12/18 00:33:02;;;;;;;7.57;3.75;;;7.30;99.90;;;;;;5038141;28;20419;-69
2021/12/18 00:35:27;;;;;;;6.72;3.17;;;7.30;99.90;;;;;;5037594;28;20132;-69
2021/12/18 00:37:53;;;;;;;8.60;3.50;;;7.30;99.90;;;;;;5019884;28;20132;-69
2021/12/18 00:40:23;;;;;;;8.10;2.90;;;7.20;99.90;;;;;;5037612;28;20049;-68
2021/12/18 00:43:01;;;;;;;12.32;3.47;;;7.20;99.90;;;;;;5037715;28;20099;-68
2021/12/18 00:45:29;;;;;;;6.47;3.33;;;7.20;99.90;;;;;;5037556;28;20394;-69
2021/12/18 00:47:55;;;;;;;6.50;2.92;;;7.20;99.90;;;;;;5034089;28;20075;-69
2021/12/18 00:50:24;;;;;;;6.40;2.90;;;7.20;99.90;;;;;;4984216;28;20049;-68
2021/12/18 00:52:51;;;;;;;8.60;3.20;;;7.20;99.90;;;;;;5017735;28;20374;-67
2021/12/18 00:55:20;;;;;;;8.55;3.17;;;7.20;99.90;;;;;;5017593;28;20064;-67
2021/12/18 00:57:46;;;;;;;7.53;3.47;;;7.20;99.90;;;;;;5000142;28;20053;-68
2021/12/18 01:00:15;;;;;;;6.85;3.03;;;7.20;99.90;;;;;;5000119;28;20124;-67
2021/12/18 01:02:44;;;;;;;8.85;2.95;;;7.20;99.90;;;;;;5017232;28;20049;-69
2021/12/18 01:05:10;;;;;;;7.38;3.03;;;7.20;99.90;;;;;;5000121;28;20046;-68
2021/12/18 01:07:36;;;;;;;7.75;3.30;;;7.20;99.90;;;;;;5017449;28;20100;-68
2021/12/18 01:10:28;;;;;;;6.40;3.00;;;7.20;99.90;;;;;;4999313;28;20120;-68
2021/12/18 01:12:57;;;;;;;6.95;2.75;;;7.10;99.90;;;;;;4999696;28;20467;-68
2021/12/18 01:15:29;;;;;;;6.28;2.67;;;7.10;99.90;;;;;;5017127;28;20123;-67
2021/12/18 01:23:27;;;;;;;8.32;3.00;;;7.10;99.90;;;;;;5036748;28;20065;-69
2021/12/18 01:25:54;;;;;;;8.50;2.97;;;7.10;99.90;;;;;;5019156;28;20049;-68
2021/12/18 01:28:20;;;;;;;6.70;2.58;;;7.10;99.90;;;;;;5019485;28;20093;-68
2021/12/18 01:30:46;;;;;;;6.28;2.30;;;7.10;99.90;;;;;;5036776;28;20132;-69
2021/12/18 01:33:12;;;;;;;8.07;2.63;;;7.00;99.90;;;;;;5018999;28;20069;-69
2021/12/18 01:35:38;;;;;;;7.47;2.85;;;7.10;99.90;;;;;;5036169;28;20443;-69
2021/12/18 01:38:04;;;;;;;11.55;2.47;;;7.00;99.90;;;;;;5036169;28;20095;-67
2021/12/18 01:40:31;;;;;;;9.45;2.70;;;7.10;99.90;;;;;;5036292;28;20117;-67
2021/12/18 01:53:43;;;;;;;13.85;3.20;;;7.00;99.90;;;;;;4999094;28;20518;-69
2021/12/18 01:56:09;;;;;;;14.38;3.53;;;7.00;99.90;;;;;;5027699;28;20079;-69
2021/12/18 01:58:35;;;;;;;11.57;3.75;;;6.90;99.90;;;;;;5035682;28;20049;-68
2021/12/18 02:01:03;;;;;;;10.07;3.55;;;7.10;99.90;;;;;;5018718;28;20137;-67
2021/12/18 02:03:29;;;;;;;17.60;4.22;;;7.00;99.90;;;;;;5018620;28;20053;-69
2021/12/18 02:05:55;;;;;;;18.40;3.88;;;6.90;99.90;;;;;;5018725;28;20056;-67
2021/12/18 02:08:23;;;;;;;10.55;3.75;;;6.90;99.90;;;;;;5035747;28;20442;-68
2021/12/18 02:11:09;;;;;;;16.35;3.95;;;6.90;99.90;;;;;;5035430;28;20065;-67
2021/12/18 02:13:47;;;;;;;13.98;4.10;;;6.90;99.90;;;;;;5035731;28;20091;-69
2021/12/18 02:21:42;;;;;;;16.58;3.80;;;6.90;99.90;;;;;;5015013;28;20085;-68
2021/12/18 02:24:08;;;;;;;11.30;3.70;;;6.90;99.90;;;;;;4998346;28;20085;-68
2021/12/18 02:26:36;;;;;;;10.45;3.92;;;6.90;99.90;;;;;;5015923;28;20124;-67
2021/12/18 02:29:04;;;;;;;9.98;3.67;;;6.90;99.90;;;;;;4998515;28;20531;-70
2021/12/18 02:31:33;;;;;;;17.23;3.97;;;6.90;99.90;;;;;;4998093;28;20045;-68
2021/12/18 02:33:59;;;;;;;11.05;3.90;;;6.90;99.90;;;;;;4998009;28;20112;-69
2021/12/18 02:36:25;;;;;;;11.00;3.38;;;6.90;99.90;;;;;;4998663;28;20057;-69
2021/12/18 02:39:08;;;;;;;11.82;4.10;;;6.80;99.90;;;;;;5015828;28;20108;-68
2021/12/18 02:41:39;;;;;;;17.35;3.97;;;6.80;99.90;;;;;;4998139;28;20064;-69
2021/12/18 02:44:11;;;;;;;9.60;3.50;;;6.90;99.90;;;;;;4998192;28;20502;-69
2021/12/18 02:46:38;;;;;;;9.35;3.33;;;6.80;99.90;;;;;;5022404;28;20068;-67
2021/12/18 02:49:13;;;;;;;10.82;3.00;;;6.80;99.90;;;;;;5017881;28;20045;-68
2021/12/18 02:51:40;;;;;;;15.88;3.20;;;6.80;99.90;;;;;;5035520;28;20397;-69
2021/12/18 02:54:06;;;;;;;12.00;3.55;;;6.80;99.90;;;;;;5034181;28;20060;-68
2021/12/18 02:56:32;;;;;;;12.48;3.65;;;6.80;99.90;;;;;;4997971;28;20053;-68
2021/12/18 02:59:04;;;;;;;13.30;3.88;;;6.80;99.90;;;;;;4997927;28;20049;-69
2021/12/18 03:01:30;;;;;;;9.70;3.78;;;6.80;99.90;;;;;;5015906;28;20124;-68
2021/12/18 03:04:01;;;;;;;8.27;3.05;;;6.80;99.90;;;;;;4998098;28;20065;-68
2021/12/18 03:20:36;;;;;;;11.88;3.95;;;6.80;99.90;;;;;;5034563;28;20103;-67
2021/12/18 03:22:54;;;;;;;12.13;3.88;;;6.90;99.90;;;;;;5017007;28;20049;-68
2021/12/18 03:25:30;;;;;;;10.63;3.70;;;6.80;99.90;;;;;;5017266;28;20053;-68
2021/12/18 03:28:02;;;;;;;11.65;3.53;;;6.80;99.90;;;;;;5034897;28;20053;-68
2021/12/18 03:30:28;;;;;;;8.98;3.13;;;6.90;99.90;;;;;;5034632;28;20233;-68
2021/12/18 03:32:54;;;;;;;10.25;3.47;;;6.90;99.90;;;;;;5019303;28;20050;-68
2021/12/18 03:35:20;;;;;;;12.43;3.00;;;6.90;99.90;;;;;;5039070;28;20525;-67
2021/12/18 03:37:46;;;;;;;13.82;3.72;;;6.90;99.90;;;;;;5021395;28;20101;-69
2021/12/18 03:40:17;;;;;;;6.95;2.72;;;6.90;99.90;;;;;;5038588;28;20044;-68
2021/12/18 03:42:43;;;;;;;11.23;2.90;;;6.90;99.90;;;;;;5038950;28;20044;-67
2021/12/18 03:45:11;;;;;;;9.55;2.80;;;6.90;99.90;;;;;;5021047;28;20099;-69
2021/12/18 03:47:37;;;;;;;7.93;2.80;;;6.80;99.90;;;;;;5020818;28;20413;-67
2021/12/18 03:50:03;;;;;;;6.30;2.50;;;6.80;99.90;;;;;;5018482;28;20126;-68
2021/12/18 03:52:29;;;;;;;6.07;2.33;;;6.80;99.90;;;;;;5001222;28;20458;-69
2021/12/18 03:54:55;;;;;;;9.85;2.65;;;6.80;99.90;;;;;;5001259;28;20108;-68
2021/12/18 03:57:20;;;;;;;9.05;2.78;;;6.80;99.90;;;;;;5001213;28;20073;-68
2021/12/18 03:59:46;;;;;;;8.90;2.72;;;6.80;99.90;;;;;;5018719;28;20088;-69
2021/12/18 04:02:12;;;;;;;11.00;3.25;;;6.80;99.90;;;;;;5001768;28;20455;-68
2021/12/18 04:04:38;;;;;;;8.07;2.83;;;6.80;99.90;;;;;;5000812;28;20072;-68
2021/12/18 04:07:04;;;;;;;13.90;3.47;;;6.80;99.90;;;;;;5018431;28;20125;-67
2021/12/18 04:09:30;;;;;;;13.25;3.20;;;6.80;99.90;;;;;;5018335;28;20045;-69
2021/12/18 04:11:57;;;;;;;16.17;3.40;;;6.80;99.90;;;;;;5001165;28;20125;-68
2021/12/18 04:14:23;;;;;;;12.25;3.00;;;6.80;99.90;;;;;;5001307;28;20108;-68
2021/12/18 04:16:48;;;;;;;11.32;3.38;;;6.80;99.90;;;;;;4995233;28;20049;-66
2021/12/18 04:19:18;;;;;;;12.38;3.15;;;6.80;99.90;;;;;;5038176;28;20132;-69
2021/12/18 04:21:44;;;;;;;9.50;2.70;;;6.90;99.90;;;;;;5020299;28;20105;-67
2021/12/18 04:24:09;;;;;;;9.13;2.97;;;6.90;99.90;;;;;;5020258;28;20089;-70
2021/12/18 04:26:35;;;;;;;6.18;2.20;;;6.80;99.90;;;;;;5020291;28;20087;-68
2021/12/18 04:29:03;;;;;;;8.32;2.65;;;6.80;99.90;;;;;;5037981;28;20049;-67
2021/12/18 04:31:29;;;;;;;8.32;2.45;;;6.80;99.90;;;;;;5037761;28;20033;-68
2021/12/18 04:33:55;;;;;;;7.57;2.13;;;6.80;99.90;;;;;;5037541;28;20107;-69
2021/12/18 04:36:21;;;;;;;7.30;2.33;;;6.90;99.90;;;;;;5037760;28;20449;-67
2021/12/18 04:38:48;;;;;;;6.80;2.60;;;6.80;99.90;;;;;;5037642;28;20068;-66
2021/12/18 04:41:20;;;;;;;4.95;2.05;;;7.00;99.90;;;;;;5037667;28;20041;-68
2021/12/18 04:43:46;;;;;;;14.07;2.15;;;6.80;99.90;;;;;;5019717;28;20501;-69
2021/12/18 04:46:12;;;;;;;8.32;2.05;;;6.80;99.90;;;;;;5011859;28;20077;-69
2021/12/18 04:48:38;;;;;;;8.15;2.10;;;6.80;99.90;;;;;;5017645;28;20184;-68
2021/12/18 04:51:03;;;;;;;5.60;2.20;;;6.80;99.90;;;;;;5017611;28;20096;-67
2021/12/18 04:53:29;;;;;;;7.03;2.20;;;6.90;99.90;;;;;;5000067;28;20480;-69
2021/12/18 04:55:54;;;;;;;5.72;1.88;;;6.80;99.90;;;;;;5017307;28;20045;-68
2021/12/18 04:58:20;;;;;;;15.48;1.88;;;6.90;99.90;;;;;;5017658;28;20046;-68
2021/12/18 05:00:47;;;;;;;8.10;2.10;;;6.90;99.90;;;;;;5017200;28;20057;-69
2021/12/18 05:03:15;;;;;;;6.28;1.90;;;6.90;99.90;;;;;;5000005;28;20123;-67
2021/12/18 05:05:41;;;;;;;10.23;2.20;;;6.90;99.90;;;;;;5000178;28;20045;-69
2021/12/18 05:08:07;;;;;;;4.93;2.08;;;6.90;99.90;;;;;;5000205;28;20052;-68
2021/12/18 05:10:33;;;;;;;5.57;1.85;;;6.90;99.90;;;;;;4999998;28;20072;-68
2021/12/18 05:12:59;;;;;;;9.30;2.53;;;6.90;99.90;;;;;;5017382;28;20469;-69
2021/12/18 05:15:25;;;;;;;9.27;2.58;;;6.90;99.90;;;;;;4984101;28;20041;-69
2021/12/18 05:17:50;;;;;;;6.35;2.60;;;6.90;99.90;;;;;;5018308;28;20366;-69
2021/12/18 05:20:16;;;;;;;7.75;2.63;;;6.90;99.90;;;;;;5019825;28;20053;-69
2021/12/18 05:22:42;;;;;;;9.27;2.95;;;7.00;99.90;;;;;;5018987;28;20605;-68
2021/12/18 05:25:11;;;;;;;6.97;2.88;;;6.90;99.90;;;;;;5003329;28;20336;-67
2021/12/18 05:27:37;;;;;;;8.68;2.88;;;7.00;99.90;;;;;;5036673;28;20114;-69
2021/12/18 05:30:09;;;;;;;7.40;2.97;;;7.00;99.90;;;;;;5036461;28;20060;-68
2021/12/18 05:32:35;;;;;;;7.55;3.10;;;7.00;99.90;;;;;;5028426;28;20041;-68
2021/12/18 05:35:02;;;;;;;12.23;3.10;;;6.90;99.90;;;;;;5016623;28;20413;-69
2021/12/18 05:37:32;;;;;;;12.50;3.20;;;7.00;99.90;;;;;;4999861;28;20045;-68
2021/12/18 05:39:59;;;;;;;8.75;3.00;;;7.00;99.90;;;;;;5017020;28;20132;-68
2021/12/18 05:42:25;;;;;;;11.25;3.22;;;7.00;99.90;;;;;;5016267;28;20046;-68
2021/12/18 05:44:50;;;;;;;9.98;3.25;;;7.00;99.90;;;;;;5016806;28;20351;-69
2021/12/18 05:47:16;;;;;;;9.40;3.38;;;7.00;99.90;;;;;;5016803;28;20054;-68
2021/12/18 05:49:41;;;;;;;11.02;3.20;;;7.00;99.90;;;;;;5016280;28;20049;-68
2021/12/18 05:52:07;;;;;;;10.65;3.70;;;7.20;99.90;;;;;;5016746;28;20470;-68
2021/12/18 05:54:35;;;;;;;30.15;3.78;;;7.00;99.90;;;;;;5016222;28;20054;-69
2021/12/18 05:57:04;;;;;;;19.85;3.78;;;7.00;99.90;;;;;;4997964;28;20466;-68
2021/12/18 05:59:30;;;;;;;16.80;3.88;;;7.10;99.90;;;;;;4999426;28;20064;-68
2021/12/18 06:01:55;;;;;;;14.95;3.53;;;7.00;99.90;;;;;;4999989;28;20046;-68
2021/12/18 06:04:21;;;;;;;14.98;3.75;;;7.10;99.90;;;;;;5035300;28;20041;-69
2021/12/18 06:06:46;;;;;;;10.73;3.40;;;7.10;99.90;;;;;;5019359;28;20057;-69
2021/12/18 06:09:12;;;;;;;10.57;3.47;;;7.10;99.90;;;;;;5036005;28;20049;-69
2021/12/18 06:11:41;;;;;;;12.55;3.95;;;7.10;99.90;;;;;;5035858;28;20417;-68
2021/12/18 06:14:07;;;;;;;7.65;3.53;;;7.10;99.90;;;;;;5018305;28;20046;-68
2021/12/18 06:16:36;;;;;;;13.65;4.05;;;7.10;99.90;;;;;;5035075;28;20111;-68
2021/12/18 06:19:01;;;;;;;14.50;3.97;;;7.30;99.90;;;;;;5035613;28;20520;-68
2021/12/18 06:21:27;;;;;;;11.73;3.80;;;7.10;99.90;;;;;;5017690;28;20088;-69
2021/12/18 06:23:55;;;;;;;12.98;4.00;;;7.10;99.90;;;;;;5035991;28;20058;-68
2021/12/18 06:26:22;;;;;;;10.98;4.57;;;7.10;99.90;;;;;;5035592;28;20060;-67
2021/12/18 06:28:49;;;;;;;10.63;4.00;;;7.20;99.90;;;;;;5002331;28;20119;-69
2021/12/18 06:31:15;;;;;;;13.52;4.65;;;7.20;99.90;;;;;;5035279;28;20038;-69
2021/12/18 06:33:40;;;;;;;14.98;5.20;;;7.20;99.90;;;;;;5016072;28;20049;-69
2021/12/18 06:36:09;;;;;;;18.67;5.25;;;7.20;99.90;;;;;;4999514;28;20042;-68
2021/12/18 06:38:36;;;;;;;16.52;5.28;;;7.20;99.90;;;;;;5014525;28;20037;-72
2021/12/18 06:41:01;;;;;;;21.85;5.30;;;7.30;99.90;;;;;;5021852;28;20041;-67
2021/12/18 06:43:27;;;;;;;15.13;4.97;;;7.20;99.90;;;;;;5035174;28;20052;-68
2021/12/18 06:45:52;;;;;;;18.88;5.43;;;7.20;99.90;;;;;;5034937;28;20373;-68
2021/12/18 06:48:18;;;;;;;11.52;4.80;;;7.30;99.90;;;;;;5017544;28;20053;-68
2021/12/18 06:50:44;;;;;;;15.25;5.32;;;7.30;99.90;;;;;;5001788;28;20447;-66
2021/12/18 06:53:12;;;;;;;14.48;5.05;;;7.30;99.90;;;;;;5034869;28;20103;-68
2021/12/18 06:55:37;;;;;;;15.95;5.38;;;7.30;99.90;;;;;;5018068;28;20065;-68
2021/12/18 06:58:04;;;;;;;18.35;6.15;;;7.30;99.90;;;;;;5035330;28;20046;-68
2021/12/18 07:00:30;;;;;;;17.50;5.80;;;7.40;99.90;;;;;;5034965;28;20046;-69
2021/12/18 07:02:56;;;;;;;20.52;6.72;;;7.40;99.90;;;;;;5017279;28;20060;-68
2021/12/18 07:05:21;;;;;;;21.10;6.38;;;7.40;99.90;;;;;;5017814;28;20075;-68
2021/12/18 07:07:47;;;;;;;19.95;7.20;;;7.40;99.90;;;;;;5017827;28;20517;-67
2021/12/18 07:10:16;;;;;;;20.05;6.70;;;7.40;99.90;;;;;;5025141;28;20045;-69
2021/12/18 07:12:42;;;;;;;23.55;7.07;;;7.50;99.90;;;;;;4991108;28;20041;-67
2021/12/18 07:15:10;;;;;;;24.98;8.45;;;7.50;99.90;;;;;;5034072;28;20510;-66
2021/12/18 07:17:36;;;;;;;21.80;7.70;;;7.50;99.90;;;;;;5028475;28;20046;-68
2021/12/18 07:20:04;;;;;;;26.67;8.85;;;7.60;99.90;;;;;;5016547;28;20049;-68
2021/12/18 07:22:29;;;;;;;21.13;8.38;;;7.60;99.90;;;;;;5031922;28;20065;-68
2021/12/18 07:24:55;;;;;;;17.08;7.15;;;7.60;99.90;;;;;;5015065;28;20056;-67
2021/12/18 07:27:20;;;;;;;21.50;7.28;;;7.70;99.90;;;;;;5033895;28;20470;-69
2021/12/18 07:29:46;;;;;;;19.17;6.53;;;7.70;99.90;;;;;;5016871;28;20049;-68
2021/12/18 07:32:14;;;;;;;13.48;6.43;;;7.70;99.90;;;;;;5028335;28;20099;-67
2021/12/18 07:34:39;;;;;;;21.67;7.57;;;7.70;99.90;;;;;;5034469;28;20041;-69
2021/12/18 07:37:05;;;;;;;28.13;8.20;;;7.80;99.90;;;;;;5017440;28;20468;-68
2021/12/18 07:39:30;;;;;;;22.20;6.88;;;7.80;99.90;;;;;;5016072;28;20111;-69
2021/12/18 07:41:56;;;;;;;15.05;6.15;;;7.80;99.90;;;;;;5034341;28;20462;-68
2021/12/18 07:44:22;;;;;;;16.73;6.03;;;7.80;99.90;;;;;;5016331;28;20041;-67
2021/12/18 07:46:47;;;;;;;12.80;5.65;;;7.80;99.90;;;;;;5017848;28;20373;-68
2021/12/18 07:49:13;;;;;;;15.57;4.82;;;7.90;99.90;;;;;;5034136;28;20411;-69
2021/12/18 07:51:39;;;;;;;12.85;5.15;;;7.90;99.90;;;;;;5017580;28;20085;-67
2021/12/18 07:54:05;;;;;;;16.90;5.32;;;7.90;99.90;;;;;;5016676;28;20057;-68
2021/12/18 07:56:32;;;;;;;17.30;5.00;;;8.20;99.90;;;;;;5015599;28;20041;-69
2021/12/18 07:58:57;;;;;;;12.10;4.93;;;8.00;99.90;;;;;;5033816;28;20057;-68
2021/12/18 08:01:23;;;;;;;11.93;4.05;;;8.00;99.90;;;;;;5016626;28;20049;-69
2021/12/18 08:03:49;;;;;;;9.00;3.78;;;8.00;99.90;;;;;;5034041;28;20041;-69
2021/12/18 08:06:15;;;;;;;13.07;4.45;;;8.00;99.90;;;;;;5034091;28;20359;-67
2021/12/18 08:08:41;;;;;;;13.60;5.53;;;8.10;99.90;;;;;;5034311;28;20057;-67
2021/12/18 08:11:06;;;;;;;13.68;5.15;;;8.10;99.90;;;;;;5020035;28;20406;-68
2021/12/18 08:13:32;;;;;;;13.90;5.45;;;8.10;99.90;;;;;;5033568;28;20491;-70
2021/12/18 08:15:58;;;;;;;18.92;4.95;;;8.10;99.90;;;;;;5021703;28;20037;-66
2021/12/18 08:18:23;;;;;;;17.88;4.18;;;8.10;99.90;;;;;;5033510;28;20084;-67
2021/12/18 08:20:52;;;;;;;13.38;4.45;;;8.10;99.90;;;;;;5019482;28;20072;-67
2021/12/18 08:23:18;;;;;;;16.02;4.50;;;8.10;99.90;;;;;;5019799;28;20478;-67
2021/12/18 08:25:43;;;;;;;17.13;4.43;;;8.20;99.90;;;;;;5037400;28;20061;-67
2021/12/18 08:28:09;;;;;;;12.35;4.25;;;8.20;99.90;;;;;;5019676;28;20050;-68
2021/12/18 08:30:36;;;;;;;16.77;4.85;;;8.20;99.90;;;;;;5019622;28;20081;-68
2021/12/18 08:33:03;;;;;;;15.95;4.55;;;8.20;99.90;;;;;;5037152;28;20072;-68
2021/12/18 08:35:31;;;;;;;15.80;4.57;;;8.20;99.90;;;;;;5019523;28;20068;-67
2021/12/18 08:37:58;;;;;;;13.25;5.15;;;8.30;99.90;;;;;;5037276;28;20050;-68
2021/12/18 08:40:24;;;;;;;18.77;4.93;;;8.30;99.90;;;;;;5037223;28;20045;-69
2021/12/18 08:42:50;;;;;;;10.35;4.40;;;8.30;99.90;;;;;;5036956;28;20053;-69
2021/12/18 08:45:16;;;;;;;13.07;4.22;;;8.30;99.90;;;;;;5002801;28;20064;-66
2021/12/18 08:47:42;;;;;;;10.80;3.42;;;8.30;99.90;;;;;;5027758;28;20057;-67
2021/12/18 08:50:13;;;;;;;10.30;3.60;;;8.40;99.90;;;;;;5036656;28;20470;-67
2021/12/18 08:52:39;;;;;;;13.40;3.10;;;8.30;99.90;;;;;;5019744;28;20049;-69
2021/12/18 08:55:06;;;;;;;13.55;3.20;;;8.40;99.90;;;;;;5019651;28;20064;-69
2021/12/18 08:57:31;;;;;;;13.10;3.00;;;8.40;99.90;;;;;;5036516;28;20053;-66
2021/12/18 08:59:57;;;;;;;7.75;3.03;;;8.40;99.90;;;;;;5037212;28;20049;-68
2021/12/18 09:02:23;;;;;;;9.10;3.30;;;8.40;99.90;;;;;;5036903;28;20417;-67
2021/12/18 09:04:49;;;;;;;8.20;2.60;;;8.40;99.90;;;;;;5016196;28;20052;-68
2021/12/18 09:07:14;;;;;;;9.73;2.90;;;8.40;99.90;;;;;;5035447;28;20051;-67
2021/12/18 09:09:40;;;;;;;11.98;2.75;;;8.40;99.90;;;;;;5043208;28;20037;-69
2021/12/18 09:12:08;;;;;;;11.13;2.70;;;8.40;99.90;;;;;;5018970;28;20462;-68
2021/12/18 09:14:33;;;;;;;6.85;2.60;;;8.40;99.90;;;;;;5034951;28;20042;-72
2021/12/18 09:16:59;;;;;;;9.65;2.80;;;8.40;99.90;;;;;;5018929;28;20103;-67
2021/12/18 09:19:24;;;;;;;9.73;2.80;;;8.40;99.90;;;;;;5019340;28;20050;-68
2021/12/18 09:21:52;;;;;;;16.00;3.30;;;8.40;99.90;;;;;;5018973;28;20136;-70
2021/12/18 09:24:18;;;;;;;11.52;2.90;;;8.40;99.90;;;;;;5036625;28;20068;-69
2021/12/18 09:26:44;;;;;;;12.88;3.50;;;8.50;99.90;;;;;;5022531;28;20053;-67
2021/12/18 09:29:09;;;;;;;13.38;3.38;;;8.50;99.90;;;;;;5039100;28;20057;-68
2021/12/18 09:31:35;;;;;;;10.13;2.95;;;8.50;99.90;;;;;;5024733;28;20390;-69
2021/12/18 09:34:01;;;;;;;10.38;2.90;;;8.50;99.90;;;;;;5030768;28;20469;-67
2021/12/18 09:36:26;;;;;;;12.98;3.17;;;8.50;99.90;;;;;;5018600;28;20387;-68
2021/12/18 09:38:52;;;;;;;12.00;2.70;;;8.50;99.90;;;;;;5036248;28;20049;-70
2021/12/18 09:41:18;;;;;;;12.57;3.13;;;8.60;99.90;;;;;;5018606;28;20053;-68
2021/12/18 09:43:43;;;;;;;11.55;2.83;;;8.60;99.90;;;;;;5018587;28;20045;-68
2021/12/18 09:46:11;;;;;;;9.27;3.30;;;8.60;99.90;;;;;;5035923;28;20401;-68
2021/12/18 09:48:39;;;;;;;10.10;3.75;;;8.60;99.90;;;;;;5035948;28;20045;-67
2021/12/18 09:51:13;;;;;;;17.33;3.35;;;8.60;99.90;;;;;;5018534;28;20060;-67
2021/12/18 09:53:39;;;;;;;12.27;2.97;;;8.60;99.90;;;;;;5018432;28;20462;-68
2021/12/18 09:56:05;;;;;;;6.90;2.92;;;8.70;99.90;;;;;;5035636;28;20523;-68
2021/12/18 09:58:32;;;;;;;15.65;3.78;;;8.70;99.90;;;;;;5018782;28;20137;-69
2021/12/18 10:00:58;;;;;;;9.98;3.40;;;8.70;99.90;;;;;;5017814;28;20046;-68
2021/12/18 10:03:50;;;;;;;12.05;2.85;;;8.70;99.90;;;;;;5010435;28;20050;-66
2021/12/18 10:06:51;;;;;;;11.50;3.25;;;8.70;99.90;;;;;;5022794;28;20462;-67
2021/12/18 10:09:19;;;;;;;14.52;4.50;;;8.70;99.90;;;;;;4955272;28;20062;-66
2021/12/18 10:12:04;;;;;;;10.50;4.53;;;8.70;99.90;;;;;;5030362;28;20063;-66
2021/12/18 10:14:37;;;;;;;14.10;4.32;;;8.70;99.90;;;;;;5055284;28;20045;-69
2021/12/18 10:17:04;;;;;;;10.52;4.57;;;8.80;99.90;;;;;;5055338;28;20377;-69
2021/12/18 10:19:31;;;;;;;11.48;4.78;;;8.80;99.90;;;;;;5055134;28;20045;-69
2021/12/18 10:22:03;;;;;;;12.15;4.60;;;8.80;99.90;;;;;;5055194;28;20376;-68
2021/12/18 10:24:31;;;;;;;11.23;5.53;;;8.80;99.90;;;;;;5055285;28;20048;-69
2021/12/18 10:26:57;;;;;;;16.95;5.32;;;8.80;99.90;;;;;;5041765;28;20366;-67
2021/12/18 10:29:29;;;;;;;17.13;6.07;;;8.80;99.90;;;;;;5037294;28;20049;-70
2021/12/18 10:32:02;;;;;;;14.07;6.32;;;8.90;99.90;;;;;;5055077;28;20060;-70
2021/12/18 10:34:27;;;;;;;16.65;6.45;;;8.90;99.90;;;;;;5037020;28;20049;-68
2021/12/18 10:37:10;;;;;;;17.85;8.30;;;8.90;99.90;;;;;;5044334;28;20133;-69
2021/12/18 10:39:38;;;;;;;22.02;12.80;;;8.90;99.90;;;;;;5030749;28;20132;-69
2021/12/18 10:42:16;;;;;;;21.52;10.20;;;8.90;99.90;;;;;;5034623;28;20045;-70
2021/12/18 10:44:55;;;;;;;18.88;9.43;;;8.90;99.90;;;;;;5034768;28;20091;-68
2021/12/18 10:47:20;;;;;;;21.77;10.57;;;8.90;99.90;;;;;;5035138;28;20339;-68
2021/12/18 10:49:46;;;;;;;23.48;14.15;;;8.90;99.90;;;;;;5034732;28;20041;-67
2021/12/18 10:52:11;;;;;;;24.25;15.18;;;8.90;99.90;;;;;;5034737;28;20041;-69
2021/12/18 10:54:37;;;;;;;26.50;16.40;;;8.90;99.90;;;;;;5034662;28;20075;-70
2021/12/18 10:57:03;;;;;;;23.20;13.55;;;8.90;99.90;;;;;;5000985;28;20045;-68
2021/12/18 10:59:36;;;;;;;21.52;12.30;;;8.90;99.90;;;;;;5033365;28;20042;-68
2021/12/18 11:02:11;;;;;;;18.90;8.80;;;9.00;99.90;;;;;;5032044;28;20056;-69
2021/12/18 11:04:41;;;;;;;12.90;6.57;;;9.00;99.90;;;;;;5011496;28;20042;-69
2021/12/18 11:07:22;;;;;;;10.63;5.82;;;9.00;99.90;;;;;;5012123;28;20455;-69
2021/12/18 11:10:12;;;;;;;10.80;5.38;;;9.00;99.90;;;;;;5034720;28;20077;-69
2021/12/18 11:15:42;;;;;;;11.13;4.65;;;9.10;99.90;;;;;;4973593;28;20098;-68
2021/12/18 11:18:09;;;;;;;10.00;4.55;;;9.00;99.90;;;;;;4957950;28;20062;-70
2021/12/18 11:20:35;;;;;;;12.88;5.43;;;9.00;99.90;;;;;;5002224;28;20084;-70
2021/12/18 11:23:00;;;;;;;13.85;4.95;;;9.00;99.90;;;;;;5034356;28;20140;-70
2021/12/18 11:25:26;;;;;;;8.98;4.07;;;9.00;99.90;;;;;;5034211;28;20135;-69
2021/12/18 11:27:55;;;;;;;13.68;4.70;;;9.10;99.90;;;;;;5029772;28;20056;-68
2021/12/18 11:30:21;;;;;;;19.55;4.32;;;9.10;99.90;;;;;;5019873;28;20105;-68
2021/12/18 11:32:54;;;;;;;20.15;3.55;;;9.00;99.90;;;;;;5037128;28;20123;-69
2021/12/18 11:35:21;;;;;;;14.60;4.65;;;9.00;99.90;;;;;;5054278;28;20053;-69
2021/12/18 11:37:54;;;;;;;12.75;4.78;;;9.10;99.90;;;;;;5028108;28;20056;-70
2021/12/18 11:40:24;;;;;;;14.55;4.05;;;9.20;99.90;;;;;;5024712;28;20042;-69
2021/12/18 11:42:50;;;;;;;11.70;3.05;;;9.10;99.90;;;;;;5017182;28;20068;-69
2021/12/18 11:45:16;;;;;;;11.52;2.67;;;9.10;99.90;;;;;;5034400;28;20053;-69
2021/12/18 11:47:44;;;;;;;11.00;2.80;;;9.10;99.90;;;;;;5031675;28;20506;-67
2021/12/18 11:50:09;;;;;;;8.55;2.30;;;9.20;99.90;;;;;;5033663;28;20195;-67
2021/12/18 11:53:03;;;;;;;8.23;2.33;;;9.20;99.90;;;;;;5015850;28;20489;-68
2021/12/18 11:55:54;;;;;;;8.65;2.83;;;9.20;99.90;;;;;;5026758;28;20133;-68
2021/12/18 11:58:25;;;;;;;11.85;3.22;;;9.20;99.90;;;;;;5027911;28;20079;-68
2021/12/18 12:00:58;;;;;;;10.65;3.85;;;9.30;99.90;;;;;;5038171;28;20046;-70
2021/12/18 12:03:36;;;;;;;12.30;3.08;;;9.30;99.90;;;;;;5038383;28;20103;-68
2021/12/18 12:06:24;;;;;;;9.70;3.03;;;9.30;99.90;;;;;;5037680;28;20045;-69
2021/12/18 12:09:10;;;;;;;9.35;3.65;;;9.30;99.90;;;;;;5034105;28;20124;-69
2021/12/18 12:11:53;;;;;;;10.45;3.47;;;9.30;99.90;;;;;;5019314;28;20124;-68
2021/12/18 12:14:20;;;;;;;15.00;4.07;;;9.30;99.90;;;;;;5038010;28;20056;-69
2021/12/18 12:16:46;;;;;;;8.73;3.95;;;9.30;99.90;;;;;;5020662;28;20099;-69
2021/12/18 12:19:16;;;;;;;11.23;4.10;;;9.30;99.90;;;;;;5037689;28;20081;-67
2021/12/18 12:21:50;;;;;;;11.88;3.05;;;9.30;99.90;;;;;;5037363;28;20064;-69
2021/12/18 12:24:21;;;;;;;13.13;2.80;;;9.30;99.90;;;;;;5037386;28;20081;-68
2021/12/18 12:26:48;;;;;;;13.30;2.92;;;9.30;99.90;;;;;;5041629;28;20044;-68
2021/12/18 12:29:16;;;;;;;11.65;2.90;;;9.30;99.90;;;;;;5023654;28;20127;-68
2021/12/18 12:32:05;;;;;;;13.57;3.15;;;9.30;99.90;;;;;;5057133;28;20045;-69
2021/12/18 12:34:34;;;;;;;9.95;2.40;;;9.30;99.90;;;;;;5039352;28;20537;-69
2021/12/18 12:37:35;;;;;;;10.23;3.08;;;9.30;99.90;;;;;;5040089;28;20037;-69
2021/12/18 12:40:12;;;;;;;9.45;2.80;;;9.30;99.90;;;;;;5037346;28;20132;-68
2021/12/18 12:43:01;;;;;;;9.43;3.20;;;9.30;99.90;;;;;;5019797;28;20084;-68
2021/12/18 12:45:41;;;;;;;12.05;4.40;;;9.60;99.90;;;;;;5019606;28;20131;-68
2021/12/18 12:48:07;;;;;;;14.52;3.47;;;9.30;99.90;;;;;;5019862;28;20042;-70
2021/12/18 12:50:33;;;;;;;11.88;3.63;;;9.40;99.90;;;;;;5019385;28;20356;-69
2021/12/18 12:53:02;;;;;;;9.75;3.15;;;9.40;99.90;;;;;;5037002;28;20099;-69
2021/12/18 12:55:30;;;;;;;8.45;2.97;;;9.40;99.90;;;;;;5003229;28;20061;-68
2021/12/18 12:58:00;;;;;;;12.52;2.88;;;9.60;99.90;;;;;;5019500;28;20053;-69
2021/12/18 13:00:25;;;;;;;8.15;3.83;;;9.50;99.90;;;;;;5019602;28;20060;-68
2021/12/18 13:02:54;;;;;;;11.63;3.35;;;9.50;99.90;;;;;;5037114;28;20377;-68
2021/12/18 13:05:22;;;;;;;13.63;4.38;;;9.40;99.90;;;;;;5018964;28;20373;-69
2021/12/18 13:07:53;;;;;;;14.55;4.20;;;9.80;99.90;;;;;;5036587;28;20056;-69
2021/12/18 13:10:35;;;;;;;8.98;3.47;;;9.40;99.90;;;;;;5008520;28;20119;-69
2021/12/18 13:13:07;;;;;;;9.88;2.58;;;9.40;99.90;;;;;;5010502;28;20358;-68
2021/12/18 13:16:00;;;;;;;16.55;3.75;;;9.40;99.90;;;;;;5036661;28;20049;-68
2021/12/18 13:18:41;;;;;;;15.82;3.35;;;9.40;99.90;;;;;;5036399;28;20421;-69
2021/12/18 13:21:23;;;;;;;10.80;3.15;;;9.50;99.90;;;;;;5019221;28;20111;-68
2021/12/18 13:24:01;;;;;;;10.60;3.25;;;9.40;99.90;;;;;;5036074;28;20068;-69
2021/12/18 13:26:35;;;;;;;11.95;2.90;;;9.40;99.90;;;;;;5020289;28;20060;-69
2021/12/18 13:29:21;;;;;;;14.20;3.83;;;9.40;99.90;;;;;;5056711;28;20123;-69
2021/12/18 13:31:56;;;;;;;10.25;3.00;;;9.40;99.90;;;;;;5038025;28;20068;-67
2021/12/18 13:34:25;;;;;;;11.52;3.40;;;9.40;99.90;;;;;;5056343;28;20049;-68
2021/12/18 13:36:57;;;;;;;12.70;3.00;;;9.30;99.90;;;;;;5022971;28;20115;-68